sensor_id;sensor_type;location;lat;lon;timestamp;temperature;humidity
3406;DHT22;10008;48.682;9.016;2024-01-11T00:01:29;-4.40;99.90
3406;DHT22;10008;48.682;9.016;2024-01-11T00:03:55;-4.40;99.90
3406;DHT22;10008;48.682;9.016;2024-01-11T00:06:21;-4.30;99.90
3406;DHT22;10008;48.682;9.016;2024-01-11T00:08:47;-4.10;99.90
3406;DHT22;10008;48.682;9.016;2024-01-11T00:11:12;-4.20;99.90
3406;DHT22;10008;48.682;9.016;2024-01-11T00:13:38;-4.30;99.90
3406;DHT22;10008;48.682;9.016;2024-01-11T00:16:04;-4.40;99.90
3406;DHT22;10008;48.682;9.016;2024-01-11T00:18:30;-4.50;99.90
3406;DHT22;10008;48.682;9.016;2024-01-11T00:20:55;-4.60;99.90
3406;DHT22;10008;48.682;9.016;2024-01-11T00:23:21;-4.60;99.90
3406;DHT22;10008;48.682;9.016;2024-01-11T00:25:47;-4.40;99.90
3406;DHT22;10008;48.682;9.016;2024-01-11T00:28:12;-4.20;99.90
3406;DHT22;10008;48.682;9.016;2024-01-11T00:30:38;-4.30;99.90
3406;DHT22;10008;48.682;9.016;2024-01-11T00:33:04;-4.50;99.90
3406;DHT22;10008;48.682;9.016;2024-01-11T00:35:29;-4.60;99.90
3406;DHT22;10008;48.682;9.016;2024-01-11T00:37:55;-4.60;99.90
3406;DHT22;10008;48.682;9.016;2024-01-11T00:40:21;-4.60;99.90
3406;DHT22;10008;48.682;9.016;2024-01-11T00:42:47;-4.50;99.90
3406;DHT22;10008;48.682;9.016;2024-01-11T00:45:12;-4.60;99.90
3406;DHT22;10008;48.682;9.016;2024-01-11T00:47:38;-4.50;99.90
3406;DHT22;10008;48.682;9.016;2024-01-11T00:50:04;-4.50;99.90
3406;DHT22;10008;48.682;9.016;2024-01-11T00:52:30;-4.50;99.90
3406;DHT22;10008;48.682;9.016;2024-01-11T00:54:56;-4.50;99.90
3406;DHT22;10008;48.682;9.016;2024-01-11T00:57:22;-4.50;99.90
3406;DHT22;10008;48.682;9.016;2024-01-11T00:59:47;-4.60;99.90
3406;DHT22;10008;48.682;9.016;2024-01-11T01:02:13;-4.50;99.90
3406;DHT22;10008;48.682;9.016;2024-01-11T01:04:39;-4.60;99.90
3406;DHT22;10008;48.682;9.016;2024-01-11T01:07:05;-4.40;99.90
3406;DHT22;10008;48.682;9.016;2024-01-11T01:09:31;-4.50;99.90
3406;DHT22;10008;48.682;9.016;2024-01-11T01:11:57;-4.50;99.90
3406;DHT22;10008;48.682;9.016;2024-01-11T01:14:23;-4.30;99.90
3406;DHT22;10008;48.682;9.016;2024-01-11T01:16:49;-4.30;99.90
3406;DHT22;10008;48.682;9.016;2024-01-11T01:19:14;-4.50;99.90
3406;DHT22;10008;48.682;9.016;2024-01-11T01:21:40;-4.70;99.90
3406;DHT22;10008;48.682;9.016;2024-01-11T01:24:06;-4.60;99.90
3406;DHT22;10008;48.682;9.016;2024-01-11T01:26:31;-4.70;99.90
3406;DHT22;10008;48.682;9.016;2024-01-11T01:28:57;-4.80;99.90
3406;DHT22;10008;48.682;9.016;2024-01-11T01:31:23;-4.80;99.90
3406;DHT22;10008;48.682;9.016;2024-01-11T01:33:49;-4.80;99.90
3406;DHT22;10008;48.682;9.016;2024-01-11T01:36:14;-4.60;99.90
3406;DHT22;10008;48.682;9.016;2024-01-11T01:38:40;-4.80;99.90
3406;DHT22;10008;48.682;9.016;2024-01-11T01:41:06;-4.90;99.90
3406;DHT22;10008;48.682;9.016;2024-01-11T01:43:32;-4.90;99.90
3406;DHT22;10008;48.682;9.016;2024-01-11T01:45:58;-4.90;99.90
3406;DHT22;10008;48.682;9.016;2024-01-11T01:48:24;-4.90;99.90
3406;DHT22;10008;48.682;9.016;2024-01-11T01:50:50;-5.00;99.90
3406;DHT22;10008;48.682;9.016;2024-01-11T01:53:21;-5.00;99.90
3406;DHT22;10008;48.682;9.016;2024-01-11T01:55:48;-4.80;99.90
3406;DHT22;10008;48.682;9.016;2024-01-11T01:58:14;-5.00;99.90
3406;DHT22;10008;48.682;9.016;2024-01-11T02:00:41;-5.00;99.90
3406;DHT22;10008;48.682;9.016;2024-01-11T02:03:08;-5.00;99.90
3406;DHT22;10008;48.682;9.016;2024-01-11T02:05:34;-5.10;99.90
3406;DHT22;10008;48.682;9.016;2024-01-11T02:08:03;-5.10;99.90
3406;DHT22;10008;48.682;9.016;2024-01-11T02:10:34;-5.10;99.90
3406;DHT22;10008;48.682;9.016;2024-01-11T02:13:01;-5.10;99.90
3406;DHT22;10008;48.682;9.016;2024-01-11T02:15:26;-5.10;99.90
3406;DHT22;10008;48.682;9.016;2024-01-11T02:17:52;-5.00;99.90
3406;DHT22;10008;48.682;9.016;2024-01-11T02:20:18;-4.90;99.90
3406;DHT22;10008;48.682;9.016;2024-01-11T02:22:48;-4.90;99.90
3406;DHT22;10008;48.682;9.016;2024-01-11T02:25:15;-5.00;99.90
3406;DHT22;10008;48.682;9.016;2024-01-11T02:27:45;-4.90;99.90
3406;DHT22;10008;48.682;9.016;2024-01-11T02:30:12;-4.90;99.90
3406;DHT22;10008;48.682;9.016;2024-01-11T02:32:38;-4.70;99.90
3406;DHT22;10008;48.682;9.016;2024-01-11T02:35:04;-4.60;99.90
3406;DHT22;10008;48.682;9.016;2024-01-11T02:37:30;-4.70;99.90
3406;DHT22;10008;48.682;9.016;2024-01-11T02:39:56;-4.70;99.90
3406;DHT22;10008;48.682;9.016;2024-01-11T02:42:22;-4.80;99.90
3406;DHT22;10008;48.682;9.016;2024-01-11T02:44:47;-4.90;99.90
3406;DHT22;10008;48.682;9.016;2024-01-11T02:47:13;-4.90;99.90
3406;DHT22;10008;48.682;9.016;2024-01-11T02:49:39;-4.90;99.90
3406;DHT22;10008;48.682;9.016;2024-01-11T02:52:05;-5.00;99.90
3406;DHT22;10008;48.682;9.016;2024-01-11T02:54:30;-5.00;99.90
3406;DHT22;10008;48.682;9.016;2024-01-11T02:56:56;-4.90;99.90
3406;DHT22;10008;48.682;9.016;2024-01-11T02:59:23;-5.10;99.90
3406;DHT22;10008;48.682;9.016;2024-01-11T03:01:49;-5.20;99.90
3406;DHT22;10008;48.682;9.016;2024-01-11T03:04:15;-5.00;99.90
3406;DHT22;10008;48.682;9.016;2024-01-11T03:06:42;-4.90;99.90
3406;DHT22;10008;48.682;9.016;2024-01-11T03:09:08;-4.90;99.90
3406;DHT22;10008;48.682;9.016;2024-01-11T03:11:33;-4.80;99.90
3406;DHT22;10008;48.682;9.016;2024-01-11T03:13:59;-4.80;99.90
3406;DHT22;10008;48.682;9.016;2024-01-11T03:16:25;-5.00;99.90
3406;DHT22;10008;48.682;9.016;2024-01-11T03:18:50;-5.20;99.90
3406;DHT22;10008;48.682;9.016;2024-01-11T03:21:16;-5.20;99.90
3406;DHT22;10008;48.682;9.016;2024-01-11T03:23:42;-5.20;99.90
3406;DHT22;10008;48.682;9.016;2024-01-11T03:26:17;-5.20;99.90
3406;DHT22;10008;48.682;9.016;2024-01-11T03:28:43;-5.50;99.90
3406;DHT22;10008;48.682;9.016;2024-01-11T03:31:10;-5.20;99.90
3406;DHT22;10008;48.682;9.016;2024-01-11T03:33:36;-5.30;99.90
3406;DHT22;10008;48.682;9.016;2024-01-11T03:36:11;-5.30;99.90
3406;DHT22;10008;48.682;9.016;2024-01-11T03:38:37;-5.30;99.90
3406;DHT22;10008;48.682;9.016;2024-01-11T03:41:10;-5.40;99.90
3406;DHT22;10008;48.682;9.016;2024-01-11T03:43:38;-5.40;99.90
3406;DHT22;10008;48.682;9.016;2024-01-11T03:46:04;-5.40;99.90
3406;DHT22;10008;48.682;9.016;2024-01-11T03:48:30;-5.40;99.90
3406;DHT22;10008;48.682;9.016;2024-01-11T03:50:56;-5.40;99.90
3406;DHT22;10008;48.682;9.016;2024-01-11T03:53:22;-5.20;99.90
3406;DHT22;10008;48.682;9.016;2024-01-11T03:55:48;-4.90;99.90
3406;DHT22;10008;48.682;9.016;2024-01-11T03:58:14;-4.90;99.90
3406;DHT22;10008;48.682;9.016;2024-01-11T04:00:39;-5.20;99.90
3406;DHT22;10008;48.682;9.016;2024-01-11T04:03:06;-5.30;99.90
3406;DHT22;10008;48.682;9.016;2024-01-11T04:05:32;-5.20;99.90
3406;DHT22;10008;48.682;9.016;2024-01-11T04:07:59;-5.30;99.90
3406;DHT22;10008;48.682;9.016;2024-01-11T04:10:24;-5.40;99.90
3406;DHT22;10008;48.682;9.016;2024-01-11T04:12:50;-5.40;99.90
3406;DHT22;10008;48.682;9.016;2024-01-11T04:15:16;-5.30;99.90
3406;DHT22;10008;48.682;9.016;2024-01-11T04:17:42;-5.40;99.90
3406;DHT22;10008;48.682;9.016;2024-01-11T04:20:08;-5.50;99.90
3406;DHT22;10008;48.682;9.016;2024-01-11T04:22:36;-5.50;99.90
3406;DHT22;10008;48.682;9.016;2024-01-11T04:25:02;-5.50;99.90
3406;DHT22;10008;48.682;9.016;2024-01-11T04:27:28;-5.30;99.90
3406;DHT22;10008;48.682;9.016;2024-01-11T04:29:54;-5.10;99.90
3406;DHT22;10008;48.682;9.016;2024-01-11T04:32:19;-5.30;99.90
3406;DHT22;10008;48.682;9.016;2024-01-11T04:34:45;-5.50;99.90
3406;DHT22;10008;48.682;9.016;2024-01-11T04:37:11;-5.40;99.90
3406;DHT22;10008;48.682;9.016;2024-01-11T04:39:36;-5.30;99.90
3406;DHT22;10008;48.682;9.016;2024-01-11T04:42:02;-5.10;99.90
3406;DHT22;10008;48.682;9.016;2024-01-11T04:44:28;-5.00;99.90
3406;DHT22;10008;48.682;9.016;2024-01-11T04:46:54;-5.40;99.90
3406;DHT22;10008;48.682;9.016;2024-01-11T04:49:20;-5.50;99.90
3406;DHT22;10008;48.682;9.016;2024-01-11T04:51:45;-5.50;99.90
3406;DHT22;10008;48.682;9.016;2024-01-11T04:54:11;-4.90;99.90
3406;DHT22;10008;48.682;9.016;2024-01-11T04:56:37;-5.00;99.90
3406;DHT22;10008;48.682;9.016;2024-01-11T04:59:03;-5.10;99.90
3406;DHT22;10008;48.682;9.016;2024-01-11T05:01:29;-5.30;99.90
3406;DHT22;10008;48.682;9.016;2024-01-11T05:03:54;-5.40;99.90
3406;DHT22;10008;48.682;9.016;2024-01-11T05:06:21;-5.40;99.90
3406;DHT22;10008;48.682;9.016;2024-01-11T05:08:48;-5.50;99.90
3406;DHT22;10008;48.682;9.016;2024-01-11T05:11:22;-5.60;99.90
3406;DHT22;10008;48.682;9.016;2024-01-11T05:13:49;-5.60;99.90
3406;DHT22;10008;48.682;9.016;2024-01-11T05:18:48;-5.60;99.90
3406;DHT22;10008;48.682;9.016;2024-01-11T05:21:14;-5.30;99.90
3406;DHT22;10008;48.682;9.016;2024-01-11T05:23:41;-5.20;99.90
3406;DHT22;10008;48.682;9.016;2024-01-11T05:26:08;-5.10;99.90
3406;DHT22;10008;48.682;9.016;2024-01-11T05:28:34;-5.10;99.90
3406;DHT22;10008;48.682;9.016;2024-01-11T05:31:00;-5.00;99.90
3406;DHT22;10008;48.682;9.016;2024-01-11T05:33:26;-5.10;99.90
3406;DHT22;10008;48.682;9.016;2024-01-11T05:35:52;-5.30;99.90
3406;DHT22;10008;48.682;9.016;2024-01-11T05:38:19;-5.30;99.90
3406;DHT22;10008;48.682;9.016;2024-01-11T05:40:45;-5.30;99.90
3406;DHT22;10008;48.682;9.016;2024-01-11T05:43:11;-5.40;99.90
3406;DHT22;10008;48.682;9.016;2024-01-11T05:45:37;-5.40;99.90
3406;DHT22;10008;48.682;9.016;2024-01-11T05:48:03;-5.30;99.90
3406;DHT22;10008;48.682;9.016;2024-01-11T05:50:28;-5.30;99.90
3406;DHT22;10008;48.682;9.016;2024-01-11T05:52:54;-5.30;99.90
3406;DHT22;10008;48.682;9.016;2024-01-11T05:55:22;-5.40;99.90
3406;DHT22;10008;48.682;9.016;2024-01-11T05:57:48;-5.40;99.90
3406;DHT22;10008;48.682;9.016;2024-01-11T06:00:14;-5.30;99.90
3406;DHT22;10008;48.682;9.016;2024-01-11T06:02:40;-5.50;99.90
3406;DHT22;10008;48.682;9.016;2024-01-11T06:05:09;-5.60;99.90
3406;DHT22;10008;48.682;9.016;2024-01-11T06:07:35;-5.60;99.90
3406;DHT22;10008;48.682;9.016;2024-01-11T06:10:01;-5.80;99.90
3406;DHT22;10008;48.682;9.016;2024-01-11T06:12:28;-5.80;99.90
3406;DHT22;10008;48.682;9.016;2024-01-11T06:14:54;-5.80;99.90
3406;DHT22;10008;48.682;9.016;2024-01-11T06:17:20;-5.80;99.90
3406;DHT22;10008;48.682;9.016;2024-01-11T06:19:46;-5.80;99.90
3406;DHT22;10008;48.682;9.016;2024-01-11T06:22:11;-5.80;99.90
3406;DHT22;10008;48.682;9.016;2024-01-11T06:24:37;-5.80;99.90
3406;DHT22;10008;48.682;9.016;2024-01-11T06:27:03;-5.80;99.90
3406;DHT22;10008;48.682;9.016;2024-01-11T06:29:28;-5.80;99.90
3406;DHT22;10008;48.682;9.016;2024-01-11T06:31:54;-5.60;99.90
3406;DHT22;10008;48.682;9.016;2024-01-11T06:34:20;-5.60;99.90
3406;DHT22;10008;48.682;9.016;2024-01-11T06:36:45;-5.60;99.90
3406;DHT22;10008;48.682;9.016;2024-01-11T06:39:11;-5.70;99.90
3406;DHT22;10008;48.682;9.016;2024-01-11T06:41:38;-5.60;99.90
3406;DHT22;10008;48.682;9.016;2024-01-11T06:44:04;-5.60;99.90
3406;DHT22;10008;48.682;9.016;2024-01-11T06:46:29;-5.60;99.90
3406;DHT22;10008;48.682;9.016;2024-01-11T06:48:56;-5.60;99.90
3406;DHT22;10008;48.682;9.016;2024-01-11T06:51:22;-5.70;99.90
3406;DHT22;10008;48.682;9.016;2024-01-11T06:53:48;-5.70;99.90
3406;DHT22;10008;48.682;9.016;2024-01-11T06:56:16;-5.60;99.90
3406;DHT22;10008;48.682;9.016;2024-01-11T06:58:42;-5.40;99.90
3406;DHT22;10008;48.682;9.016;2024-01-11T07:01:08;-5.60;99.90
3406;DHT22;10008;48.682;9.016;2024-01-11T07:03:34;-5.60;99.90
3406;DHT22;10008;48.682;9.016;2024-01-11T07:06:00;-5.30;99.90
3406;DHT22;10008;48.682;9.016;2024-01-11T07:08:25;-5.50;99.90
3406;DHT22;10008;48.682;9.016;2024-01-11T07:10:51;-5.50;99.90
3406;DHT22;10008;48.682;9.016;2024-01-11T07:13:17;-5.50;99.90
3406;DHT22;10008;48.682;9.016;2024-01-11T07:15:43;-5.60;99.90
3406;DHT22;10008;48.682;9.016;2024-01-11T07:18:09;-5.30;99.90
3406;DHT22;10008;48.682;9.016;2024-01-11T07:20:34;-5.10;99.90
3406;DHT22;10008;48.682;9.016;2024-01-11T07:23:00;-5.00;99.90
3406;DHT22;10008;48.682;9.016;2024-01-11T07:25:26;-4.90;99.90
3406;DHT22;10008;48.682;9.016;2024-01-11T07:27:52;-4.80;99.90
3406;DHT22;10008;48.682;9.016;2024-01-11T07:30:18;-4.80;99.90
3406;DHT22;10008;48.682;9.016;2024-01-11T07:32:46;-4.80;99.90
3406;DHT22;10008;48.682;9.016;2024-01-11T07:35:13;-4.90;99.90
3406;DHT22;10008;48.682;9.016;2024-01-11T07:37:40;-4.80;99.90
3406;DHT22;10008;48.682;9.016;2024-01-11T07:40:06;-4.80;99.90
3406;DHT22;10008;48.682;9.016;2024-01-11T07:42:37;-5.00;99.90
3406;DHT22;10008;48.682;9.016;2024-01-11T07:45:05;-5.30;99.90
3406;DHT22;10008;48.682;9.016;2024-01-11T07:47:31;-5.40;99.90
3406;DHT22;10008;48.682;9.016;2024-01-11T07:49:57;-5.40;99.90
3406;DHT22;10008;48.682;9.016;2024-01-11T07:52:22;-5.20;99.90
3406;DHT22;10008;48.682;9.016;2024-01-11T07:54:48;-5.00;99.90
3406;DHT22;10008;48.682;9.016;2024-01-11T07:57:14;-5.30;99.90
3406;DHT22;10008;48.682;9.016;2024-01-11T07:59:40;-5.40;99.90
3406;DHT22;10008;48.682;9.016;2024-01-11T08:02:06;-5.20;99.90
3406;DHT22;10008;48.682;9.016;2024-01-11T08:04:33;-5.20;99.90
3406;DHT22;10008;48.682;9.016;2024-01-11T08:06:58;-5.20;99.90
3406;DHT22;10008;48.682;9.016;2024-01-11T08:09:28;-5.20;99.90
3406;DHT22;10008;48.682;9.016;2024-01-11T08:11:54;-5.00;99.90
3406;DHT22;10008;48.682;9.016;2024-01-11T08:14:20;-4.70;99.90
3406;DHT22;10008;48.682;9.016;2024-01-11T08:16:46;-4.50;99.90
3406;DHT22;10008;48.682;9.016;2024-01-11T08:19:12;-4.40;99.90
3406;DHT22;10008;48.682;9.016;2024-01-11T08:21:41;-4.30;99.90
3406;DHT22;10008;48.682;9.016;2024-01-11T08:24:07;-4.60;99.90
3406;DHT22;10008;48.682;9.016;2024-01-11T08:26:33;-4.50;99.90
3406;DHT22;10008;48.682;9.016;2024-01-11T08:28:59;-4.20;99.90
3406;DHT22;10008;48.682;9.016;2024-01-11T08:31:25;-4.30;99.90
3406;DHT22;10008;48.682;9.016;2024-01-11T08:33:51;-4.10;99.90
3406;DHT22;10008;48.682;9.016;2024-01-11T08:36:17;-4.10;99.90
3406;DHT22;10008;48.682;9.016;2024-01-11T08:38:42;-4.20;99.90
3406;DHT22;10008;48.682;9.016;2024-01-11T08:41:08;-4.30;99.90
3406;DHT22;10008;48.682;9.016;2024-01-11T08:43:34;-4.10;99.90
3406;DHT22;10008;48.682;9.016;2024-01-11T08:46:00;-4.00;99.90
3406;DHT22;10008;48.682;9.016;2024-01-11T08:48:27;-3.90;99.90
3406;DHT22;10008;48.682;9.016;2024-01-11T08:50:54;-3.70;99.90
3406;DHT22;10008;48.682;9.016;2024-01-11T08:53:19;-3.70;99.90
3406;DHT22;10008;48.682;9.016;2024-01-11T08:55:45;-3.80;99.90
3406;DHT22;10008;48.682;9.016;2024-01-11T08:58:11;-3.60;99.90
3406;DHT22;10008;48.682;9.016;2024-01-11T09:00:37;-3.50;99.90
3406;DHT22;10008;48.682;9.016;2024-01-11T09:03:04;-3.40;99.90
3406;DHT22;10008;48.682;9.016;2024-01-11T09:05:30;-3.40;99.90
3406;DHT22;10008;48.682;9.016;2024-01-11T09:07:55;-3.50;99.90
3406;DHT22;10008;48.682;9.016;2024-01-11T09:10:21;-3.60;99.90
3406;DHT22;10008;48.682;9.016;2024-01-11T09:12:47;-3.40;99.90
3406;DHT22;10008;48.682;9.016;2024-01-11T09:15:13;-3.10;99.90
3406;DHT22;10008;48.682;9.016;2024-01-11T09:17:40;-3.00;99.90
3406;DHT22;10008;48.682;9.016;2024-01-11T09:20:06;-3.00;99.90
3406;DHT22;10008;48.682;9.016;2024-01-11T09:22:31;-2.90;99.90
3406;DHT22;10008;48.682;9.016;2024-01-11T09:24:58;-2.80;99.90
3406;DHT22;10008;48.682;9.016;2024-01-11T09:27:23;-2.80;99.90
3406;DHT22;10008;48.682;9.016;2024-01-11T09:29:49;-2.70;99.90
3406;DHT22;10008;48.682;9.016;2024-01-11T09:32:15;-2.70;99.90
3406;DHT22;10008;48.682;9.016;2024-01-11T09:34:41;-2.80;99.90
3406;DHT22;10008;48.682;9.016;2024-01-11T09:37:07;-2.80;99.90
3406;DHT22;10008;48.682;9.016;2024-01-11T09:39:32;-2.60;99.90
3406;DHT22;10008;48.682;9.016;2024-01-11T09:42:17;-2.40;99.90
3406;DHT22;10008;48.682;9.016;2024-01-11T09:44:44;-2.30;99.90
3406;DHT22;10008;48.682;9.016;2024-01-11T09:47:10;-2.20;99.90
3406;DHT22;10008;48.682;9.016;2024-01-11T09:49:38;-2.10;99.90
3406;DHT22;10008;48.682;9.016;2024-01-11T09:52:05;-2.10;99.90
3406;DHT22;10008;48.682;9.016;2024-01-11T09:54:34;-2.10;99.90
3406;DHT22;10008;48.682;9.016;2024-01-11T09:57:02;-2.00;99.90
3406;DHT22;10008;48.682;9.016;2024-01-11T09:59:29;-1.90;99.90
3406;DHT22;10008;48.682;9.016;2024-01-11T10:01:55;-1.90;99.90
3406;DHT22;10008;48.682;9.016;2024-01-11T10:04:22;-1.80;99.90
3406;DHT22;10008;48.682;9.016;2024-01-11T10:06:49;-1.70;99.90
3406;DHT22;10008;48.682;9.016;2024-01-11T10:09:16;-1.60;99.90
3406;DHT22;10008;48.682;9.016;2024-01-11T10:11:42;-1.40;99.90
3406;DHT22;10008;48.682;9.016;2024-01-11T10:14:08;-1.40;99.90
3406;DHT22;10008;48.682;9.016;2024-01-11T10:16:33;-1.40;99.90
3406;DHT22;10008;48.682;9.016;2024-01-11T10:19:00;-1.50;99.90
3406;DHT22;10008;48.682;9.016;2024-01-11T10:21:27;-1.60;99.90
3406;DHT22;10008;48.682;9.016;2024-01-11T10:23:54;-1.60;99.90
3406;DHT22;10008;48.682;9.016;2024-01-11T10:26:20;-1.50;99.90
3406;DHT22;10008;48.682;9.016;2024-01-11T10:28:47;-1.40;99.90
3406;DHT22;10008;48.682;9.016;2024-01-11T10:31:13;-1.40;99.90
3406;DHT22;10008;48.682;9.016;2024-01-11T10:33:42;-1.30;99.90
3406;DHT22;10008;48.682;9.016;2024-01-11T10:36:08;-1.30;99.90
3406;DHT22;10008;48.682;9.016;2024-01-11T10:38:39;-1.10;99.90
3406;DHT22;10008;48.682;9.016;2024-01-11T10:41:05;-1.10;99.90
3406;DHT22;10008;48.682;9.016;2024-01-11T10:43:35;-1.10;99.90
3406;DHT22;10008;48.682;9.016;2024-01-11T10:46:02;-1.00;99.90
3406;DHT22;10008;48.682;9.016;2024-01-11T10:48:31;-0.90;99.90
3406;DHT22;10008;48.682;9.016;2024-01-11T10:51:01;-0.80;99.90
3406;DHT22;10008;48.682;9.016;2024-01-11T10:53:38;-0.60;99.90
3406;DHT22;10008;48.682;9.016;2024-01-11T10:56:06;-0.20;99.90
3406;DHT22;10008;48.682;9.016;2024-01-11T10:58:35;0.30;99.90
3406;DHT22;10008;48.682;9.016;2024-01-11T11:01:02;0.10;99.90
3406;DHT22;10008;48.682;9.016;2024-01-11T11:03:29;0.10;99.90
3406;DHT22;10008;48.682;9.016;2024-01-11T11:05:58;-0.20;99.90
3406;DHT22;10008;48.682;9.016;2024-01-11T11:08:24;-0.30;99.90
3406;DHT22;10008;48.682;9.016;2024-01-11T11:10:56;-0.40;99.90
3406;DHT22;10008;48.682;9.016;2024-01-11T11:13:23;-0.30;99.90
3406;DHT22;10008;48.682;9.016;2024-01-11T11:15:48;-0.30;99.90
3406;DHT22;10008;48.682;9.016;2024-01-11T11:18:15;-0.40;99.90
3406;DHT22;10008;48.682;9.016;2024-01-11T11:20:41;-0.20;99.90
3406;DHT22;10008;48.682;9.016;2024-01-11T11:23:08;0.20;99.90
3406;DHT22;10008;48.682;9.016;2024-01-11T11:25:40;0.40;99.90
3406;DHT22;10008;48.682;9.016;2024-01-11T11:28:06;0.30;99.90
3406;DHT22;10008;48.682;9.016;2024-01-11T11:30:33;0.30;99.90
3406;DHT22;10008;48.682;9.016;2024-01-11T11:33:11;0.20;99.90
3406;DHT22;10008;48.682;9.016;2024-01-11T11:35:37;0.40;99.90
3406;DHT22;10008;48.682;9.016;2024-01-11T11:38:04;0.60;99.90
3406;DHT22;10008;48.682;9.016;2024-01-11T11:40:36;0.70;99.90
3406;DHT22;10008;48.682;9.016;2024-01-11T11:43:07;0.80;99.90
3406;DHT22;10008;48.682;9.016;2024-01-11T11:45:33;1.10;99.90
3406;DHT22;10008;48.682;9.016;2024-01-11T11:47:59;1.20;99.90
3406;DHT22;10008;48.682;9.016;2024-01-11T11:50:25;1.10;99.90
3406;DHT22;10008;48.682;9.016;2024-01-11T11:52:55;0.80;99.90
3406;DHT22;10008;48.682;9.016;2024-01-11T11:55:24;0.90;99.90
3406;DHT22;10008;48.682;9.016;2024-01-11T11:57:53;1.00;99.90
3406;DHT22;10008;48.682;9.016;2024-01-11T12:00:23;1.20;99.90
3406;DHT22;10008;48.682;9.016;2024-01-11T12:02:50;1.40;99.90
3406;DHT22;10008;48.682;9.016;2024-01-11T12:05:17;1.60;99.90
3406;DHT22;10008;48.682;9.016;2024-01-11T12:07:44;1.70;99.90
3406;DHT22;10008;48.682;9.016;2024-01-11T12:10:11;1.60;99.90
3406;DHT22;10008;48.682;9.016;2024-01-11T12:12:37;1.50;99.90
3406;DHT22;10008;48.682;9.016;2024-01-11T12:15:05;1.40;99.90
3406;DHT22;10008;48.682;9.016;2024-01-11T12:17:31;1.40;99.90
3406;DHT22;10008;48.682;9.016;2024-01-11T12:19:56;1.50;99.90
3406;DHT22;10008;48.682;9.016;2024-01-11T12:22:23;1.40;99.90
3406;DHT22;10008;48.682;9.016;2024-01-11T12:24:49;1.70;99.90
3406;DHT22;10008;48.682;9.016;2024-01-11T12:27:15;1.70;99.90
3406;DHT22;10008;48.682;9.016;2024-01-11T12:29:41;1.80;99.90
3406;DHT22;10008;48.682;9.016;2024-01-11T12:32:08;1.80;99.90
3406;DHT22;10008;48.682;9.016;2024-01-11T12:34:36;2.10;99.90
3406;DHT22;10008;48.682;9.016;2024-01-11T12:37:03;2.20;99.90
3406;DHT22;10008;48.682;9.016;2024-01-11T12:39:31;2.50;99.70
3406;DHT22;10008;48.682;9.016;2024-01-11T12:41:56;3.30;98.60
3406;DHT22;10008;48.682;9.016;2024-01-11T12:44:23;4.00;96.40
3406;DHT22;10008;48.682;9.016;2024-01-11T12:46:52;4.40;94.40
3406;DHT22;10008;48.682;9.016;2024-01-11T12:49:18;4.50;93.00
3406;DHT22;10008;48.682;9.016;2024-01-11T12:51:44;4.90;92.50
3406;DHT22;10008;48.682;9.016;2024-01-11T12:54:13;5.30;91.10
3406;DHT22;10008;48.682;9.016;2024-01-11T12:56:43;5.50;90.80
3406;DHT22;10008;48.682;9.016;2024-01-11T12:59:09;5.80;90.30
3406;DHT22;10008;48.682;9.016;2024-01-11T13:01:37;6.20;89.30
3406;DHT22;10008;48.682;9.016;2024-01-11T13:04:03;6.50;87.40
3406;DHT22;10008;48.682;9.016;2024-01-11T13:06:30;6.60;86.30
3406;DHT22;10008;48.682;9.016;2024-01-11T13:08:57;6.80;84.80
3406;DHT22;10008;48.682;9.016;2024-01-11T13:11:23;7.00;84.40
3406;DHT22;10008;48.682;9.016;2024-01-11T13:13:50;7.20;82.60
3406;DHT22;10008;48.682;9.016;2024-01-11T13:16:17;7.30;82.00
3406;DHT22;10008;48.682;9.016;2024-01-11T13:18:44;7.80;80.40
3406;DHT22;10008;48.682;9.016;2024-01-11T13:21:10;8.10;78.30
3406;DHT22;10008;48.682;9.016;2024-01-11T13:23:38;7.80;76.60
3406;DHT22;10008;48.682;9.016;2024-01-11T13:26:06;7.60;77.00
3406;DHT22;10008;48.682;9.016;2024-01-11T13:28:33;7.90;77.10
3406;DHT22;10008;48.682;9.016;2024-01-11T13:30:59;8.20;75.80
3406;DHT22;10008;48.682;9.016;2024-01-11T13:33:25;7.90;74.70
3406;DHT22;10008;48.682;9.016;2024-01-11T13:35:51;8.20;76.40
3406;DHT22;10008;48.682;9.016;2024-01-11T13:38:17;8.00;75.00
3406;DHT22;10008;48.682;9.016;2024-01-11T13:40:43;7.90;75.30
3406;DHT22;10008;48.682;9.016;2024-01-11T13:43:09;7.90;76.00
3406;DHT22;10008;48.682;9.016;2024-01-11T13:45:36;7.10;76.40
3406;DHT22;10008;48.682;9.016;2024-01-11T13:48:05;7.30;78.00
3406;DHT22;10008;48.682;9.016;2024-01-11T13:50:32;7.30;88.00
3406;DHT22;10008;48.682;9.016;2024-01-11T13:52:58;6.90;79.80
3406;DHT22;10008;48.682;9.016;2024-01-11T13:55:24;6.80;79.80
3406;DHT22;10008;48.682;9.016;2024-01-11T13:57:50;6.80;79.50
3406;DHT22;10008;48.682;9.016;2024-01-11T14:00:17;6.90;78.70
3406;DHT22;10008;48.682;9.016;2024-01-11T14:02:44;7.10;77.90
3406;DHT22;10008;48.682;9.016;2024-01-11T14:05:13;6.30;79.10
3406;DHT22;10008;48.682;9.016;2024-01-11T14:07:41;6.00;80.20
3406;DHT22;10008;48.682;9.016;2024-01-11T14:10:08;6.30;80.50
3406;DHT22;10008;48.682;9.016;2024-01-11T14:12:38;6.30;79.90
3406;DHT22;10008;48.682;9.016;2024-01-11T14:15:04;6.00;80.90
3406;DHT22;10008;48.682;9.016;2024-01-11T14:17:31;5.60;90.40
3406;DHT22;10008;48.682;9.016;2024-01-11T14:19:58;4.90;85.90
3406;DHT22;10008;48.682;9.016;2024-01-11T14:22:23;4.20;87.10
3406;DHT22;10008;48.682;9.016;2024-01-11T14:24:49;3.80;89.60
3406;DHT22;10008;48.682;9.016;2024-01-11T14:27:15;3.40;90.80
3406;DHT22;10008;48.682;9.016;2024-01-11T14:29:42;3.00;91.90
3406;DHT22;10008;48.682;9.016;2024-01-11T14:32:07;2.90;92.50
3406;DHT22;10008;48.682;9.016;2024-01-11T14:34:33;2.50;92.80
3406;DHT22;10008;48.682;9.016;2024-01-11T14:36:59;2.30;94.10
3406;DHT22;10008;48.682;9.016;2024-01-11T14:39:25;2.10;94.70
3406;DHT22;10008;48.682;9.016;2024-01-11T14:41:52;1.90;95.10
3406;DHT22;10008;48.682;9.016;2024-01-11T14:44:18;1.90;95.50
3406;DHT22;10008;48.682;9.016;2024-01-11T14:46:44;1.70;95.90
3406;DHT22;10008;48.682;9.016;2024-01-11T14:49:10;1.50;96.80
3406;DHT22;10008;48.682;9.016;2024-01-11T14:51:36;1.30;98.30
3406;DHT22;10008;48.682;9.016;2024-01-11T14:54:03;1.10;99.00
3406;DHT22;10008;48.682;9.016;2024-01-11T14:56:32;0.90;99.90
3406;DHT22;10008;48.682;9.016;2024-01-11T14:59:01;0.80;99.90
3406;DHT22;10008;48.682;9.016;2024-01-11T15:01:27;0.70;99.90
3406;DHT22;10008;48.682;9.016;2024-01-11T15:03:53;0.60;99.90
3406;DHT22;10008;48.682;9.016;2024-01-11T15:06:19;0.50;99.90
3406;DHT22;10008;48.682;9.016;2024-01-11T15:08:45;0.40;99.90
3406;DHT22;10008;48.682;9.016;2024-01-11T15:11:11;0.40;99.90
3406;DHT22;10008;48.682;9.016;2024-01-11T15:13:36;0.30;99.90
3406;DHT22;10008;48.682;9.016;2024-01-11T15:16:02;0.30;99.90
3406;DHT22;10008;48.682;9.016;2024-01-11T15:18:28;0.30;99.90
3406;DHT22;10008;48.682;9.016;2024-01-11T15:20:54;0.20;99.90
3406;DHT22;10008;48.682;9.016;2024-01-11T15:23:20;0.10;99.90
3406;DHT22;10008;48.682;9.016;2024-01-11T15:25:45;0.00;99.90
3406;DHT22;10008;48.682;9.016;2024-01-11T15:28:11;0.00;99.90
3406;DHT22;10008;48.682;9.016;2024-01-11T15:30:37;-0.10;99.90
3406;DHT22;10008;48.682;9.016;2024-01-11T15:33:03;-0.10;99.90
3406;DHT22;10008;48.682;9.016;2024-01-11T15:35:29;-0.20;99.90
3406;DHT22;10008;48.682;9.016;2024-01-11T15:37:55;-0.30;99.90
3406;DHT22;10008;48.682;9.016;2024-01-11T15:40:21;-0.30;99.90
3406;DHT22;10008;48.682;9.016;2024-01-11T15:42:47;-0.30;99.90
3406;DHT22;10008;48.682;9.016;2024-01-11T15:45:14;-0.40;99.90
3406;DHT22;10008;48.682;9.016;2024-01-11T15:47:40;-0.50;99.90